sensor_id;sensor_type;location;lat;lon;timestamp;pressure;altitude;pressure_sealevel;temperature;humidity
12073;BME280;6098;49.004;8.372;2023-07-16T00:06:52;100165.34;;;20.70;100.00
12073;BME280;6098;49.004;8.372;2023-07-16T00:21:47;100139.84;;;20.69;100.00
12073;BME280;6098;49.004;8.372;2023-07-16T00:36:40;100141.55;;;20.55;100.00
12073;BME280;6098;49.004;8.372;2023-07-16T00:51:33;100161.69;;;20.34;100.00
12073;BME280;6098;49.004;8.372;2023-07-16T01:21:22;100216.07;;;19.94;100.00
12073;BME280;6098;49.004;8.372;2023-07-16T01:36:14;100200.06;;;19.70;96.72
12073;BME280;6098;49.004;8.372;2023-07-16T01:51:05;100222.84;;;19.66;96.81
12073;BME280;6098;49.004;8.372;2023-07-16T02:05:57;100248.33;;;19.61;96.90
12073;BME280;6098;49.004;8.372;2023-07-16T02:20:50;100275.83;;;19.59;99.11
12073;BME280;6098;49.004;8.372;2023-07-16T02:35:47;100286.02;;;19.60;99.42
12073;BME280;6098;49.004;8.372;2023-07-16T02:50:42;100298.67;;;19.53;99.17
12073;BME280;6098;49.004;8.372;2023-07-16T03:05:33;100305.83;;;19.54;97.76
12073;BME280;6098;49.004;8.372;2023-07-16T03:20:27;100300.05;;;19.47;94.46
12073;BME280;6098;49.004;8.372;2023-07-16T03:35:21;100315.27;;;19.47;94.47
12073;BME280;6098;49.004;8.372;2023-07-16T03:50:12;100349.44;;;19.52;94.67
12073;BME280;6098;49.004;8.372;2023-07-16T04:05:07;100362.33;;;19.53;95.97
12073;BME280;6098;49.004;8.372;2023-07-16T04:20:00;100368.06;;;19.54;93.63
12073;BME280;6098;49.004;8.372;2023-07-16T04:34:53;100397.31;;;19.58;93.25
12073;BME280;6098;49.004;8.372;2023-07-16T04:49:46;100404.25;;;19.67;92.39
12073;BME280;6098;49.004;8.372;2023-07-16T05:04:38;100416.14;;;19.70;90.57
12073;BME280;6098;49.004;8.372;2023-07-16T05:19:29;100424.44;;;19.73;88.98
12073;BME280;6098;49.004;8.372;2023-07-16T05:34:22;100433.04;;;19.78;87.94
12073;BME280;6098;49.004;8.372;2023-07-16T05:49:14;100446.52;;;19.71;86.09
12073;BME280;6098;49.004;8.372;2023-07-16T06:04:07;100454.75;;;19.81;83.86
12073;BME280;6098;49.004;8.372;2023-07-16T06:19:00;100461.74;;;20.06;81.68
12073;BME280;6098;49.004;8.372;2023-07-16T06:33:53;100464.77;;;20.25;80.12
12073;BME280;6098;49.004;8.372;2023-07-16T06:48:45;100484.63;;;20.53;78.90
12073;BME280;6098;49.004;8.372;2023-07-16T07:03:39;100486.17;;;20.78;73.76
12073;BME280;6098;49.004;8.372;2023-07-16T07:18:46;100484.16;;;21.04;70.69
12073;BME280;6098;49.004;8.372;2023-07-16T07:33:36;100499.94;;;21.14;68.43
12073;BME280;6098;49.004;8.372;2023-07-16T07:48:30;100492.42;;;21.56;68.61
12073;BME280;6098;49.004;8.372;2023-07-16T08:03:24;100499.46;;;21.58;66.24
12073;BME280;6098;49.004;8.372;2023-07-16T08:18:15;100507.27;;;21.51;66.36
12073;BME280;6098;49.004;8.372;2023-07-16T08:33:07;100502.71;;;21.62;65.79
12073;BME280;6098;49.004;8.372;2023-07-16T08:48:01;100507.91;;;21.59;66.05
12073;BME280;6098;49.004;8.372;2023-07-16T09:02:52;100530.92;;;21.58;64.34
12073;BME280;6098;49.004;8.372;2023-07-16T09:17:47;100514.16;;;22.08;63.46
12073;BME280;6098;49.004;8.372;2023-07-16T09:32:42;100510.34;;;22.52;59.22
12073;BME280;6098;49.004;8.372;2023-07-16T09:47:34;100517.31;;;22.70;57.23
12073;BME280;6098;49.004;8.372;2023-07-16T10:02:26;100523.56;;;22.92;56.93
12073;BME280;6098;49.004;8.372;2023-07-16T10:17:22;100535.44;;;23.30;54.69
12073;BME280;6098;49.004;8.372;2023-07-16T10:32:13;100516.54;;;23.40;53.19
12073;BME280;6098;49.004;8.372;2023-07-16T10:47:06;100511.52;;;23.31;52.73
12073;BME280;6098;49.004;8.372;2023-07-16T11:01:58;100505.42;;;23.38;53.37
12073;BME280;6098;49.004;8.372;2023-07-16T11:16:52;100496.61;;;24.04;51.88
12073;BME280;6098;49.004;8.372;2023-07-16T11:31:52;100499.80;;;24.18;47.89
12073;BME280;6098;49.004;8.372;2023-07-16T11:46:50;100502.85;;;24.53;47.69
12073;BME280;6098;49.004;8.372;2023-07-16T12:01:43;100494.85;;;24.93;47.11
12073;BME280;6098;49.004;8.372;2023-07-16T12:16:38;100491.23;;;25.66;46.38
12073;BME280;6098;49.004;8.372;2023-07-16T12:31:31;100470.77;;;25.31;45.35
12073;BME280;6098;49.004;8.372;2023-07-16T12:46:22;100453.20;;;25.80;46.16
12073;BME280;6098;49.004;8.372;2023-07-16T13:01:16;100453.00;;;25.77;45.53
12073;BME280;6098;49.004;8.372;2023-07-16T13:16:10;100460.97;;;26.15;44.34
12073;BME280;6098;49.004;8.372;2023-07-16T13:31:05;100439.48;;;26.51;42.97
12073;BME280;6098;49.004;8.372;2023-07-16T13:45:57;100435.02;;;26.76;42.05
12073;BME280;6098;49.004;8.372;2023-07-16T14:00:57;100437.94;;;27.13;42.51
12073;BME280;6098;49.004;8.372;2023-07-16T14:15:57;100435.25;;;27.82;41.90
12073;BME280;6098;49.004;8.372;2023-07-16T14:30:54;100436.83;;;28.29;41.84
12073;BME280;6098;49.004;8.372;2023-07-16T14:45:49;100429.31;;;28.76;39.22
12073;BME280;6098;49.004;8.372;2023-07-16T15:00:42;100421.13;;;28.80;38.81
12073;BME280;6098;49.004;8.372;2023-07-16T15:15:36;100383.17;;;29.24;38.52
12073;BME280;6098;49.004;8.372;2023-07-16T15:30:31;100385.97;;;29.08;35.71
12073;BME280;6098;49.004;8.372;2023-07-16T15:45:26;100387.13;;;30.31;37.11
12073;BME280;6098;49.004;8.372;2023-07-16T16:00:20;100382.69;;;30.56;34.70
12073;BME280;6098;49.004;8.372;2023-07-16T16:15:12;100365.04;;;29.69;37.70
12073;BME280;6098;49.004;8.372;2023-07-16T16:30:01;100356.55;;;28.87;37.13
12073;BME280;6098;49.004;8.372;2023-07-16T16:44:51;100353.36;;;27.76;39.54
12073;BME280;6098;49.004;8.372;2023-07-16T16:59:42;100362.52;;;27.22;41.48
12073;BME280;6098;49.004;8.372;2023-07-16T17:14:35;100353.95;;;27.01;42.37
12073;BME280;6098;49.004;8.372;2023-07-16T17:29:28;100362.13;;;27.13;42.09
12073;BME280;6098;49.004;8.372;2023-07-16T17:44:22;100371.83;;;28.29;40.78
12073;BME280;6098;49.004;8.372;2023-07-16T17:59:20;100361.27;;;29.21;38.18
12073;BME280;6098;49.004;8.372;2023-07-16T18:14:08;100370.48;;;27.32;41.11
12073;BME280;6098;49.004;8.372;2023-07-16T18:28:59;100378.38;;;26.72;42.52
12073;BME280;6098;49.004;8.372;2023-07-16T18:43:52;100370.59;;;26.38;43.66
12073;BME280;6098;49.004;8.372;2023-07-16T18:58:46;100366.66;;;26.11;45.03
12073;BME280;6098;49.004;8.372;2023-07-16T19:13:52;100369.88;;;25.80;46.01
12073;BME280;6098;49.004;8.372;2023-07-16T19:28:45;100380.84;;;25.57;47.30
12073;BME280;6098;49.004;8.372;2023-07-16T19:43:38;100401.89;;;25.28;50.18
12073;BME280;6098;49.004;8.372;2023-07-16T19:58:29;100390.70;;;24.95;51.34
12073;BME280;6098;49.004;8.372;2023-07-16T20:13:21;100403.22;;;24.69;53.52
12073;BME280;6098;49.004;8.372;2023-07-16T20:28:18;100416.87;;;24.36;55.17
12073;BME280;6098;49.004;8.372;2023-07-16T20:43:10;100437.88;;;24.10;57.05
12073;BME280;6098;49.004;8.372;2023-07-16T20:58:01;100435.64;;;23.85;57.52
12073;BME280;6098;49.004;8.372;2023-07-16T21:12:55;100442.46;;;23.61;57.93
12073;BME280;6098;49.004;8.372;2023-07-16T21:27:56;100445.42;;;23.39;58.84
12073;BME280;6098;49.004;8.372;2023-07-16T21:42:51;100450.45;;;23.18;59.61
12073;BME280;6098;49.004;8.372;2023-07-16T21:57:44;100460.09;;;22.96;61.12
12073;BME280;6098;49.004;8.372;2023-07-16T22:12:36;100471.17;;;22.73;61.14
12073;BME280;6098;49.004;8.372;2023-07-16T22:27:28;100463.20;;;22.61;61.02
12073;BME280;6098;49.004;8.372;2023-07-16T22:42:21;100478.20;;;22.44;61.26
12073;BME280;6098;49.004;8.372;2023-07-16T22:57:14;100507.28;;;22.25;62.84
12073;BME280;6098;49.004;8.372;2023-07-16T23:12:05;100502.21;;;22.11;65.44
12073;BME280;6098;49.004;8.372;2023-07-16T23:26:59;100488.86;;;21.98;66.21
12073;BME280;6098;49.004;8.372;2023-07-16T23:41:53;100502.84;;;21.76;68.18
12073;BME280;6098;49.004;8.372;2023-07-16T23:56:46;100507.61;;;21.57;69.04
